createdAt,value
2023-01-08T00:02:05.130Z,10.30
2023-01-08T00:05:06.428Z,10.50
2023-01-08T00:08:07.750Z,9.98
2023-01-08T00:11:09.028Z,10.63
2023-01-08T00:14:10.356Z,10.57
2023-01-08T00:17:11.661Z,10.77
2023-01-08T00:20:12.956Z,10.70
2023-01-08T00:23:14.243Z,10.30
2023-01-08T00:26:15.562Z,10.48
2023-01-08T00:29:17.083Z,10.35
2023-01-08T00:32:18.386Z,10.18
2023-01-08T00:35:19.664Z,9.93
2023-01-08T00:38:20.970Z,10.20
2023-01-08T00:41:22.271Z,10.52
2023-01-08T00:44:23.580Z,9.73
2023-01-08T00:47:24.889Z,9.68
2023-01-08T00:50:26.185Z,10.30
2023-01-08T00:53:27.487Z,9.75
2023-01-08T00:56:28.774Z,9.95
2023-01-08T00:59:30.097Z,9.82
2023-01-08T01:02:31.431Z,9.65
2023-01-08T01:05:32.745Z,9.30
2023-01-08T01:08:34.033Z,9.77
2023-01-08T01:11:35.450Z,9.50
2023-01-08T01:14:36.737Z,8.60
2023-01-08T01:17:38.319Z,9.00
2023-01-08T01:20:39.651Z,8.70
2023-01-08T01:23:40.966Z,9.02
2023-01-08T01:26:42.270Z,8.88
2023-01-08T01:29:43.581Z,8.18
2023-01-08T01:32:44.998Z,8.48
2023-01-08T01:35:46.288Z,7.90
2023-01-08T01:38:47.611Z,7.90
2023-01-08T01:41:49.005Z,8.10
2023-01-08T01:44:50.325Z,7.97
2023-01-08T01:47:51.646Z,7.82
2023-01-08T01:50:52.963Z,7.77
2023-01-08T01:53:54.249Z,8.77
2023-01-08T01:56:55.552Z,7.82
2023-01-08T01:59:56.874Z,7.95
2023-01-08T02:02:58.161Z,7.80
2023-01-08T02:05:59.468Z,7.63
2023-01-08T02:09:00.785Z,7.78
2023-01-08T02:12:02.134Z,8.10
2023-01-08T02:15:03.435Z,7.93
2023-01-08T02:18:04.764Z,7.30
2023-01-08T02:21:06.149Z,7.43
2023-01-08T02:24:07.466Z,7.25
2023-01-08T02:27:08.762Z,7.10
2023-01-08T02:30:10.072Z,7.82
2023-01-08T02:33:11.370Z,7.03
2023-01-08T02:36:12.688Z,7.70
2023-01-08T02:39:13.972Z,7.05
2023-01-08T02:42:15.383Z,6.70
2023-01-08T02:45:16.705Z,7.53
2023-01-08T02:48:18.036Z,7.22
2023-01-08T02:51:19.435Z,6.77
2023-01-08T02:54:20.736Z,7.35
2023-01-08T02:57:22.035Z,7.53
2023-01-08T03:00:23.342Z,7.25
2023-01-08T03:03:24.664Z,7.30
2023-01-08T03:06:25.957Z,7.37
2023-01-08T03:09:27.274Z,6.35
2023-01-08T03:12:28.562Z,6.82
2023-01-08T03:15:29.869Z,7.05
2023-01-08T03:18:31.196Z,7.40
2023-01-08T03:21:32.499Z,6.90
2023-01-08T03:24:33.808Z,6.40
2023-01-08T03:27:35.096Z,7.70
2023-01-08T03:30:36.446Z,6.80
2023-01-08T03:33:37.760Z,6.78
2023-01-08T03:36:39.059Z,6.53
2023-01-08T03:39:40.375Z,6.65
2023-01-08T03:42:41.679Z,6.75
2023-01-08T03:45:43.078Z,6.32
2023-01-08T03:48:44.412Z,6.28
2023-01-08T03:51:45.731Z,6.50
2023-01-08T03:54:47.021Z,5.35
2023-01-08T03:57:48.368Z,6.00
2023-01-08T04:00:49.673Z,5.82
2023-01-08T04:03:50.968Z,6.13
2023-01-08T04:06:52.269Z,5.40
2023-01-08T04:09:53.642Z,6.93
2023-01-08T04:12:55.124Z,7.43
2023-01-08T04:15:56.428Z,7.47
2023-01-08T04:18:57.756Z,8.13
2023-01-08T04:21:59.052Z,8.70
2023-01-08T04:25:00.349Z,9.80
2023-01-08T04:28:01.654Z,10.10
2023-01-08T04:31:03.024Z,9.20
2023-01-08T04:34:04.370Z,10.77
2023-01-08T04:37:05.669Z,10.27
2023-01-08T04:40:06.975Z,9.93
2023-01-08T04:43:08.295Z,10.15
2023-01-08T04:46:09.654Z,9.60
2023-01-08T04:49:10.998Z,10.27
2023-01-08T04:52:12.290Z,10.13
2023-01-08T04:55:13.587Z,9.70
2023-01-08T04:58:14.887Z,8.45
2023-01-08T05:01:16.257Z,8.95
2023-01-08T05:04:17.614Z,8.90
2023-01-08T05:07:18.909Z,8.33
2023-01-08T05:10:20.227Z,9.07
2023-01-08T05:13:21.512Z,8.30
2023-01-08T05:16:22.812Z,8.07
2023-01-08T05:19:24.137Z,8.07
2023-01-08T05:22:25.435Z,8.73
2023-01-08T05:25:26.779Z,7.32
2023-01-08T05:28:28.099Z,8.68
2023-01-08T05:31:29.489Z,7.72
2023-01-08T05:34:30.875Z,7.43
2023-01-08T05:37:32.180Z,6.93
2023-01-08T05:40:33.474Z,8.07
2023-01-08T05:43:34.787Z,7.30
2023-01-08T05:46:36.139Z,6.55
2023-01-08T05:49:37.505Z,7.32
2023-01-08T05:52:38.795Z,6.90
2023-01-08T05:55:40.111Z,6.60
2023-01-08T05:58:41.451Z,7.78
2023-01-08T06:01:42.789Z,7.38
2023-01-08T06:04:44.170Z,7.15
2023-01-08T06:07:45.477Z,6.50
2023-01-08T06:10:46.799Z,6.88
2023-01-08T06:13:48.102Z,7.38
2023-01-08T06:16:49.417Z,7.28
2023-01-08T06:19:50.759Z,6.55
2023-01-08T06:22:52.122Z,6.63
2023-01-08T06:25:53.388Z,6.53
2023-01-08T06:28:54.686Z,6.88
2023-01-08T06:31:56.001Z,6.53
2023-01-08T06:34:57.315Z,6.32
2023-01-08T06:37:58.631Z,6.43
2023-01-08T06:40:59.921Z,6.35
2023-01-08T06:44:01.224Z,6.03
2023-01-08T06:47:02.505Z,6.20
2023-01-08T06:50:03.811Z,6.40
2023-01-08T06:53:05.095Z,6.13
2023-01-08T06:56:06.392Z,6.05
2023-01-08T06:59:07.680Z,5.78
2023-01-08T07:02:09.045Z,5.88
2023-01-08T07:05:10.479Z,5.30
2023-01-08T07:08:11.782Z,5.80
2023-01-08T07:11:13.071Z,5.53
2023-01-08T07:14:14.373Z,6.38
2023-01-08T07:17:15.676Z,5.80
2023-01-08T07:20:16.989Z,5.63
2023-01-08T07:23:18.384Z,6.53
2023-01-08T07:26:19.706Z,6.25
2023-01-08T07:29:21.001Z,6.68
2023-01-08T07:32:22.290Z,6.30
2023-01-08T07:35:23.618Z,6.40
2023-01-08T07:38:24.911Z,6.47
2023-01-08T07:41:26.196Z,6.03
2023-01-08T07:44:27.494Z,6.40
2023-01-08T07:47:28.800Z,6.47
2023-01-08T07:50:30.099Z,6.10
2023-01-08T07:53:31.503Z,6.03
2023-01-08T07:56:32.787Z,5.90
2023-01-08T07:59:34.096Z,6.63
2023-01-08T08:02:35.524Z,6.15
2023-01-08T08:05:36.976Z,5.80
2023-01-08T08:08:38.686Z,5.93
2023-01-08T08:11:40.723Z,5.88
2023-01-08T08:14:42.029Z,6.18
2023-01-08T08:17:43.353Z,5.88
2023-01-08T08:20:44.636Z,5.57
2023-01-08T08:23:45.973Z,5.97
2023-01-08T08:26:47.277Z,5.97
2023-01-08T08:29:48.624Z,6.25
2023-01-08T08:32:49.932Z,5.22
2023-01-08T08:35:51.233Z,5.55
2023-01-08T08:38:52.548Z,5.90
2023-01-08T08:41:53.849Z,5.55
2023-01-08T08:44:55.152Z,5.78
2023-01-08T08:47:56.448Z,5.68
2023-01-08T08:50:57.770Z,5.68
2023-01-08T08:53:59.073Z,4.63
2023-01-08T08:57:00.384Z,4.78
2023-01-08T09:00:01.739Z,5.47
2023-01-08T09:03:03.124Z,4.70
2023-01-08T09:06:04.476Z,6.03
2023-01-08T09:09:05.794Z,4.50
2023-01-08T09:12:07.139Z,4.97
2023-01-08T09:15:08.467Z,5.78
2023-01-08T09:18:09.767Z,5.40
2023-01-08T09:21:11.089Z,5.55
2023-01-08T09:24:12.427Z,5.37
2023-01-08T09:27:13.765Z,5.22
2023-01-08T09:30:15.059Z,5.63
2023-01-08T09:33:16.385Z,5.72
2023-01-08T09:36:17.700Z,5.05
2023-01-08T09:39:18.982Z,5.47
2023-01-08T09:42:20.303Z,4.72
2023-01-08T09:45:21.626Z,5.60
2023-01-08T09:48:22.916Z,5.88
2023-01-08T09:51:24.232Z,5.05
2023-01-08T09:54:25.535Z,5.33
2023-01-08T09:57:26.840Z,5.03
2023-01-08T10:00:28.254Z,5.45
2023-01-08T10:03:29.594Z,5.35
2023-01-08T10:06:30.908Z,5.47
2023-01-08T10:09:32.225Z,5.27
2023-01-08T10:12:33.514Z,5.47
2023-01-08T10:15:34.831Z,5.20
2023-01-08T10:18:36.137Z,4.88
2023-01-08T10:21:37.452Z,4.82
2023-01-08T10:24:38.795Z,4.90
2023-01-08T10:27:40.080Z,4.55
2023-01-08T10:30:41.424Z,4.88
2023-01-08T10:33:42.715Z,4.88
2023-01-08T10:36:44.030Z,4.90
2023-01-08T10:39:45.327Z,4.70
2023-01-08T10:42:46.659Z,5.03
2023-01-08T10:45:48.035Z,5.15
2023-01-08T10:48:49.358Z,4.20
2023-01-08T10:51:50.676Z,4.88
2023-01-08T10:54:51.988Z,4.40
2023-01-08T10:57:53.303Z,4.50
2023-01-08T11:00:54.643Z,4.72
2023-01-08T11:03:55.965Z,4.60
2023-01-08T11:06:57.267Z,4.75
2023-01-08T11:09:58.566Z,4.67
2023-01-08T11:12:59.900Z,4.75
2023-01-08T11:16:01.211Z,4.25
2023-01-08T11:19:02.511Z,4.15
2023-01-08T11:22:03.801Z,4.43
2023-01-08T11:25:05.114Z,4.93
2023-01-08T11:28:06.399Z,3.97
2023-01-08T11:31:07.720Z,4.57
2023-01-08T11:34:09.050Z,4.25
2023-01-08T11:37:10.358Z,4.68
2023-01-08T11:40:11.647Z,4.60
2023-01-08T11:43:12.961Z,4.43
2023-01-08T11:46:14.279Z,4.60
2023-01-08T11:49:15.581Z,4.07
2023-01-08T11:52:16.891Z,4.53
2023-01-08T11:55:18.199Z,4.13
2023-01-08T11:58:19.503Z,3.90
2023-01-08T12:01:20.868Z,4.00
2023-01-08T12:04:22.196Z,3.72
2023-01-08T12:07:23.506Z,4.10
2023-01-08T12:10:24.828Z,3.40
2023-01-08T12:13:26.167Z,3.95
2023-01-08T12:16:27.494Z,3.60
2023-01-08T12:19:28.861Z,4.28
2023-01-08T12:22:30.199Z,3.45
2023-01-08T12:25:31.489Z,4.23
2023-01-08T12:28:32.808Z,3.60
2023-01-08T12:31:34.145Z,3.58
2023-01-08T12:34:35.456Z,3.45
2023-01-08T12:37:36.779Z,3.50
2023-01-08T12:40:38.097Z,4.00
2023-01-08T12:43:39.444Z,3.55
2023-01-08T12:46:40.771Z,3.42
2023-01-08T12:49:42.069Z,4.05
2023-01-08T12:52:43.375Z,3.65
2023-01-08T12:55:44.664Z,3.30
2023-01-08T12:58:45.972Z,3.45
2023-01-08T13:01:47.352Z,3.83
2023-01-08T13:04:48.718Z,3.72
2023-01-08T13:07:50.018Z,3.33
2023-01-08T13:10:51.335Z,3.70
2023-01-08T13:13:52.647Z,3.45
2023-01-08T13:16:53.997Z,3.80
2023-01-08T13:19:55.329Z,3.38
2023-01-08T13:22:56.630Z,3.97
2023-01-08T13:25:57.921Z,3.30
2023-01-08T13:28:59.221Z,3.00
2023-01-08T13:32:00.606Z,3.67
2023-01-08T13:35:01.937Z,3.55
2023-01-08T13:38:03.219Z,3.67
2023-01-08T13:41:04.533Z,3.20
2023-01-08T13:44:05.845Z,2.88
2023-01-08T13:47:07.141Z,3.05
2023-01-08T13:50:08.452Z,2.60
2023-01-08T13:53:09.763Z,2.88
2023-01-08T13:56:11.077Z,3.03
2023-01-08T13:59:12.398Z,2.92
2023-01-08T14:02:13.828Z,2.88
2023-01-08T14:05:15.159Z,2.65
2023-01-08T14:08:16.469Z,3.38
2023-01-08T14:11:17.802Z,3.13
2023-01-08T14:14:19.122Z,3.13
2023-01-08T14:17:20.431Z,3.40
2023-01-08T14:20:21.744Z,3.25
2023-01-08T14:23:23.042Z,3.30
2023-01-08T14:26:24.343Z,2.80
2023-01-08T14:29:25.653Z,2.50
2023-01-08T14:32:26.960Z,3.50
2023-01-08T14:35:28.260Z,2.75
2023-01-08T14:38:29.570Z,3.28
2023-01-08T14:41:30.915Z,2.33
2023-01-08T14:44:38.970Z,3.38
2023-01-08T14:47:43.304Z,2.70
2023-01-08T14:50:44.718Z,2.60
2023-01-08T14:53:46.103Z,3.17
2023-01-08T14:56:47.414Z,2.80
2023-01-08T14:59:48.746Z,2.85
2023-01-08T15:02:50.136Z,2.90
2023-01-08T15:05:51.480Z,2.35
2023-01-08T15:08:52.790Z,2.97
2023-01-08T15:11:54.109Z,3.40
2023-01-08T15:14:55.417Z,2.92
2023-01-08T15:17:56.718Z,2.85
2023-01-08T15:20:58.042Z,2.92
2023-01-08T15:23:59.347Z,3.17
2023-01-08T15:27:00.706Z,3.63
2023-01-08T15:30:02.023Z,2.42
2023-01-08T15:33:03.345Z,2.75
2023-01-08T15:36:04.639Z,2.72
2023-01-08T15:39:05.947Z,3.00
2023-01-08T15:42:07.242Z,2.57
2023-01-08T15:45:08.553Z,3.20
2023-01-08T15:48:09.879Z,2.50
2023-01-08T15:51:11.298Z,3.00
2023-01-08T15:54:12.623Z,2.95
2023-01-08T15:57:13.938Z,2.57
2023-01-08T16:00:15.257Z,3.20
2023-01-08T16:03:16.658Z,2.33
2023-01-08T16:06:18.248Z,2.78
2023-01-08T16:09:19.661Z,2.60
2023-01-08T16:12:21.270Z,2.97
2023-01-08T16:15:22.645Z,3.10
2023-01-08T16:18:23.939Z,3.20
2023-01-08T16:21:25.256Z,2.45
2023-01-08T16:24:26.845Z,3.03
2023-01-08T16:27:28.233Z,2.73
2023-01-08T16:30:29.526Z,2.65
2023-01-08T16:33:31.119Z,2.95
2023-01-08T16:36:32.508Z,2.53
2023-01-08T16:39:33.831Z,2.85
2023-01-08T16:42:35.639Z,2.27
2023-01-08T16:45:37.436Z,2.67
2023-01-08T16:48:39.193Z,3.05
2023-01-08T16:51:40.619Z,2.45
2023-01-08T16:54:42.830Z,2.90
2023-01-08T16:57:44.218Z,2.70
2023-01-08T17:00:45.822Z,3.10
2023-01-08T17:03:47.277Z,2.95
2023-01-08T17:06:48.676Z,2.65
2023-01-08T17:09:49.994Z,2.80
2023-01-08T17:12:51.654Z,2.70
2023-01-08T17:15:53.190Z,2.70
2023-01-08T17:18:54.869Z,2.63
2023-01-08T17:21:56.342Z,2.67
2023-01-08T17:24:57.753Z,2.40
2023-01-08T17:27:59.125Z,2.43
2023-01-08T17:31:00.440Z,2.83
2023-01-08T17:34:02.056Z,2.88
2023-01-08T17:37:03.407Z,2.58
2023-01-08T17:40:04.744Z,2.88
2023-01-08T17:43:06.080Z,2.90
2023-01-08T17:46:07.610Z,2.40
2023-01-08T17:49:08.981Z,2.85
2023-01-08T17:52:10.659Z,2.38
2023-01-08T17:55:12.386Z,2.65
2023-01-08T17:58:13.885Z,2.50
2023-01-08T18:01:15.645Z,2.67
2023-01-08T18:04:17.194Z,2.95
2023-01-08T18:07:18.684Z,2.55
2023-01-08T18:10:20.058Z,2.65
2023-01-08T18:13:21.423Z,2.90
2023-01-08T18:16:23.085Z,3.15
2023-01-08T18:19:24.533Z,3.03
2023-01-08T18:22:25.858Z,2.00
2023-01-08T18:25:27.262Z,2.97
2023-01-08T18:28:28.927Z,2.53
2023-01-08T18:31:30.403Z,2.83
2023-01-08T18:34:31.781Z,2.88
2023-01-08T18:37:33.147Z,2.30
2023-01-08T18:40:34.577Z,2.75
2023-01-08T18:43:35.972Z,3.17
2023-01-08T18:46:37.296Z,3.03
2023-01-08T18:49:38.646Z,2.42
2023-01-08T18:52:39.979Z,2.55
2023-01-08T18:55:41.672Z,3.08
2023-01-08T18:58:43.267Z,2.80
2023-01-08T19:01:46.077Z,2.90
2023-01-08T19:04:47.431Z,2.53
2023-01-08T19:07:48.744Z,2.95
2023-01-08T19:10:50.389Z,3.15
2023-01-08T19:13:51.715Z,3.07
2023-01-08T19:16:53.191Z,3.33
2023-01-08T19:19:54.544Z,3.25
2023-01-08T19:22:55.873Z,2.65
2023-01-08T19:25:57.545Z,3.08
2023-01-08T19:28:59.332Z,3.13
2023-01-08T19:32:01.586Z,2.83
2023-01-08T19:35:03.369Z,3.10
2023-01-08T19:38:05.657Z,3.20
2023-01-08T19:41:07.181Z,2.83
2023-01-08T19:44:08.707Z,3.07
2023-01-08T19:47:10.048Z,2.90
2023-01-08T19:50:11.508Z,3.55
2023-01-08T19:53:14.601Z,3.05
2023-01-08T19:56:16.523Z,3.30
2023-01-08T19:59:18.323Z,2.70
2023-01-08T20:02:20.242Z,2.95
2023-01-08T20:05:21.734Z,2.92
2023-01-08T20:08:23.871Z,2.88
2023-01-08T20:11:25.407Z,2.63
2023-01-08T20:14:26.878Z,3.17
2023-01-08T20:17:28.587Z,3.28
2023-01-08T20:20:30.157Z,2.83
2023-01-08T20:23:31.895Z,3.45
2023-01-08T20:26:33.682Z,3.17
2023-01-08T20:29:35.463Z,2.97
2023-01-08T20:32:37.054Z,3.38
2023-01-08T20:35:38.437Z,3.03
2023-01-08T20:38:39.746Z,2.75
2023-01-08T20:41:46.544Z,3.03
2023-01-08T20:44:57.119Z,3.20
2023-01-08T20:47:58.532Z,3.50
2023-01-08T20:50:59.897Z,3.28
2023-01-08T20:54:01.240Z,2.72
2023-01-08T20:57:02.551Z,3.20
2023-01-08T21:00:03.871Z,2.70
2023-01-08T21:03:05.182Z,2.40
2023-01-08T21:06:06.519Z,3.30
2023-01-08T21:09:08.172Z,2.65
2023-01-08T21:12:09.536Z,2.72
2023-01-08T21:15:10.845Z,2.73
2023-01-08T21:18:12.134Z,3.00
2023-01-08T21:21:13.642Z,3.47
2023-01-08T21:24:15.002Z,2.83
2023-01-08T21:27:16.339Z,2.65
2023-01-08T21:30:17.643Z,3.07
2023-01-08T21:33:18.937Z,3.15
2023-01-08T21:36:20.258Z,3.33
2023-01-08T21:39:21.558Z,2.83
2023-01-08T21:42:22.884Z,3.20
2023-01-08T21:45:24.193Z,2.60
2023-01-08T21:48:25.489Z,2.70
2023-01-08T21:51:26.796Z,3.30
2023-01-08T21:54:28.099Z,2.67
2023-01-08T21:57:29.412Z,3.15
2023-01-08T22:00:30.720Z,2.53
2023-01-08T22:03:32.016Z,2.95
2023-01-08T22:06:33.327Z,2.80
2023-01-08T22:09:34.662Z,2.75
2023-01-08T22:12:35.984Z,3.15
2023-01-08T22:15:37.346Z,2.63
2023-01-08T22:18:38.656Z,2.95
2023-01-08T22:21:39.970Z,3.22
2023-01-08T22:24:41.283Z,3.03
2023-01-08T22:27:42.588Z,2.55
2023-01-08T22:30:43.888Z,2.50
2023-01-08T22:33:45.176Z,2.83
2023-01-08T22:36:46.469Z,2.25
2023-01-08T22:39:47.777Z,3.08
2023-01-08T22:42:49.092Z,2.53
2023-01-08T22:45:50.429Z,2.40
2023-01-08T22:48:51.803Z,2.92
2023-01-08T22:51:53.134Z,3.05
2023-01-08T22:54:54.448Z,3.00
2023-01-08T22:57:55.765Z,2.80
2023-01-08T23:00:57.060Z,2.87
2023-01-08T23:03:58.407Z,2.38
2023-01-08T23:06:59.706Z,2.72
2023-01-08T23:10:01.071Z,2.60
2023-01-08T23:13:02.414Z,2.67
2023-01-08T23:16:03.737Z,2.23
2023-01-08T23:19:05.056Z,2.38
2023-01-08T23:22:06.366Z,2.50
2023-01-08T23:25:07.653Z,2.30
2023-01-08T23:28:08.956Z,3.00
2023-01-08T23:31:10.266Z,2.93
2023-01-08T23:34:11.568Z,2.30
2023-01-08T23:37:12.883Z,2.42
2023-01-08T23:40:14.197Z,2.50
2023-01-08T23:43:15.498Z,2.60
2023-01-08T23:46:16.828Z,2.33
2023-01-08T23:49:18.117Z,2.60
2023-01-08T23:52:19.418Z,2.50
2023-01-08T23:55:20.708Z,2.15
2023-01-08T23:58:22.033Z,2.28
